createdAt,value
2018-10-21T00:02:22.935Z,101909.17
2018-10-21T00:04:51.355Z,101911.94
2018-10-21T00:07:19.918Z,101915.36
2018-10-21T00:09:49.322Z,101916.55
2018-10-21T00:12:17.821Z,101916.95
2018-10-21T00:14:46.354Z,101924.86
2018-10-21T00:17:14.802Z,101915.67
2018-10-21T00:19:43.617Z,101911.54
2018-10-21T00:22:12.077Z,101915.85
2018-10-21T00:24:40.730Z,101914.97
2018-10-21T00:27:09.331Z,101919.23
2018-10-21T00:29:37.861Z,101923.59
2018-10-21T00:32:06.438Z,101922.52
2018-10-21T00:34:34.918Z,101917.55
2018-10-21T00:37:03.566Z,101922.38
2018-10-21T00:39:32.058Z,101912.67
2018-10-21T00:42:00.684Z,101915.31
2018-10-21T00:44:29.380Z,101918.03
2018-10-21T00:46:57.954Z,101916.02
2018-10-21T00:49:26.553Z,101912.94
2018-10-21T00:51:55.021Z,101915.19
2018-10-21T00:54:23.844Z,101916.15
2018-10-21T00:56:52.434Z,101907.80
2018-10-21T00:59:21.344Z,101906.44
2018-10-21T01:01:49.885Z,101906.04
2018-10-21T01:04:18.462Z,101897.30
2018-10-21T01:06:46.947Z,101896.41
2018-10-21T01:09:15.688Z,101893.03
2018-10-21T01:11:44.366Z,101896.16
2018-10-21T01:14:12.866Z,101883.48
2018-10-21T01:19:05.185Z,101880.76
2018-10-21T01:21:33.785Z,101878.91
2018-10-21T01:24:02.480Z,101878.61
2018-10-21T01:26:31.082Z,101877.55
2018-10-21T01:28:59.608Z,101889.56
2018-10-21T01:31:28.154Z,101882.56
2018-10-21T01:33:56.788Z,101881.34
2018-10-21T01:36:25.644Z,101884.85
2018-10-21T01:38:54.125Z,101889.25
2018-10-21T01:41:22.902Z,101887.02
2018-10-21T01:43:51.442Z,101884.76
2018-10-21T01:46:19.990Z,101890.30
2018-10-21T01:48:48.522Z,101881.89
2018-10-21T01:51:17.051Z,101878.64
2018-10-21T01:53:45.771Z,101816.17
2018-10-21T01:56:14.402Z,101883.73
2018-10-21T01:58:43.357Z,101883.24
2018-10-21T02:01:11.942Z,101878.80
2018-10-21T02:03:40.530Z,101875.58
2018-10-21T02:06:08.995Z,101879.40
2018-10-21T02:08:38.101Z,101875.25
2018-10-21T02:11:06.874Z,101855.45
2018-10-21T02:13:35.362Z,101865.72
2018-10-21T02:16:04.021Z,101856.38
2018-10-21T02:18:32.575Z,101853.25
2018-10-21T02:21:01.171Z,101863.71
2018-10-21T02:23:29.631Z,101861.72
2018-10-21T02:25:58.222Z,101851.53
2018-10-21T02:28:26.954Z,101808.47
2018-10-21T02:30:55.446Z,101844.00
2018-10-21T02:33:24.294Z,101840.87
2018-10-21T02:35:52.809Z,101840.87
2018-10-21T02:38:21.387Z,101844.34
2018-10-21T02:41:30.894Z,101827.49
2018-10-21T02:43:59.757Z,101823.83
2018-10-21T02:46:28.489Z,101828.51
2018-10-21T02:48:57.935Z,101821.42
2018-10-21T02:51:26.409Z,101820.92
2018-10-21T02:53:54.883Z,101812.13
2018-10-21T02:56:23.556Z,101816.80
2018-10-21T02:58:52.057Z,101817.15
2018-10-21T03:01:20.885Z,101815.20
2018-10-21T03:03:49.511Z,101816.38
2018-10-21T03:06:18.318Z,101813.10
2018-10-21T03:08:46.914Z,101816.52
2018-10-21T03:11:15.533Z,101818.17
2018-10-21T03:13:44.061Z,101816.34
2018-10-21T03:16:12.646Z,101819.28
2018-10-21T03:18:41.469Z,101816.13
2018-10-21T03:21:10.071Z,101819.59
2018-10-21T03:23:38.556Z,101822.80
2018-10-21T03:26:07.066Z,101824.45
2018-10-21T03:28:35.552Z,101825.06
2018-10-21T03:31:04.181Z,101820.54
2018-10-21T03:33:33.237Z,101824.67
2018-10-21T03:36:01.797Z,101811.23
2018-10-21T03:38:30.331Z,101824.22
2018-10-21T03:40:59.191Z,101813.53
2018-10-21T03:43:27.666Z,101801.12
2018-10-21T03:45:56.343Z,101807.08
2018-10-21T03:48:24.943Z,101800.88
2018-10-21T03:50:53.409Z,101735.34
2018-10-21T03:53:22.150Z,101798.91
2018-10-21T03:55:50.630Z,101801.05
2018-10-21T03:58:19.326Z,101798.01
2018-10-21T04:00:49.665Z,101792.23
2018-10-21T04:03:18.386Z,101789.02
2018-10-21T04:05:46.947Z,101785.44
2018-10-21T04:08:15.477Z,101780.96
2018-10-21T04:10:43.994Z,101776.88
2018-10-21T04:13:12.526Z,101780.72
2018-10-21T04:15:41.429Z,101703.20
2018-10-21T04:18:09.910Z,101770.92
2018-10-21T04:20:38.541Z,101770.02
2018-10-21T04:23:07.061Z,101777.02
2018-10-21T04:25:37.018Z,101775.31
2018-10-21T04:28:06.196Z,101771.73
2018-10-21T04:30:35.986Z,101769.09
2018-10-21T04:33:10.117Z,101766.83
2018-10-21T04:35:38.862Z,101771.61
2018-10-21T04:38:26.198Z,101761.03
2018-10-21T04:40:54.755Z,101758.31
2018-10-21T04:43:23.230Z,101752.58
2018-10-21T04:45:51.745Z,101752.03
2018-10-21T04:48:20.547Z,101741.05
2018-10-21T04:50:49.034Z,101744.09
2018-10-21T04:53:17.872Z,101739.61
2018-10-21T04:55:46.530Z,101737.02
2018-10-21T04:58:15.176Z,101741.44
2018-10-21T05:00:45.944Z,101738.41
2018-10-21T05:03:14.669Z,101738.80
2018-10-21T05:05:43.190Z,101728.89
2018-10-21T05:08:11.680Z,101731.94
2018-10-21T05:10:40.564Z,101726.64
2018-10-21T05:13:09.960Z,101729.70
2018-10-21T05:15:39.789Z,101724.05
2018-10-21T05:18:08.412Z,101723.60
2018-10-21T05:20:37.341Z,101720.95
2018-10-21T05:23:06.642Z,101722.28
2018-10-21T05:25:35.366Z,101729.70
2018-10-21T05:28:05.822Z,101724.34
2018-10-21T05:30:34.558Z,101724.29
2018-10-21T05:33:03.122Z,101724.29
2018-10-21T05:35:32.131Z,101721.64
2018-10-21T05:38:00.819Z,101716.28
2018-10-21T05:40:29.375Z,101716.22
2018-10-21T05:42:57.930Z,101722.30
2018-10-21T05:45:26.454Z,101709.86
2018-10-21T05:47:55.246Z,101710.70
2018-10-21T05:50:23.727Z,101713.29
2018-10-21T05:52:52.518Z,101707.58
2018-10-21T05:55:22.082Z,101703.96
2018-10-21T05:57:51.317Z,101703.41
2018-10-21T06:00:20.664Z,101700.77
2018-10-21T06:02:49.304Z,101709.45
2018-10-21T06:05:41.302Z,101704.48
2018-10-21T06:08:10.061Z,101701.37
2018-10-21T06:10:38.893Z,101710.58
2018-10-21T06:13:07.493Z,101710.03
2018-10-21T06:15:36.122Z,101716.14
2018-10-21T06:18:07.290Z,101717.85
2018-10-21T06:20:37.871Z,101722.11
2018-10-21T06:23:06.398Z,101726.47
2018-10-21T06:25:34.890Z,101715.88
2018-10-21T06:28:03.638Z,101714.95
2018-10-21T06:30:32.136Z,101714.04
2018-10-21T06:33:00.793Z,101705.22
2018-10-21T06:35:29.300Z,101710.84
2018-10-21T06:37:57.897Z,101713.10
2018-10-21T06:40:26.426Z,101707.29
2018-10-21T06:42:55.071Z,101718.59
2018-10-21T06:45:23.910Z,101670.99
2018-10-21T06:47:52.338Z,101715.48
2018-10-21T06:50:21.588Z,101715.41
2018-10-21T06:52:50.453Z,101714.52
2018-10-21T06:55:19.268Z,101713.50
2018-10-21T06:57:47.942Z,101719.61
2018-10-21T07:00:17.225Z,101719.06
2018-10-21T07:02:46.318Z,101715.89
2018-10-21T07:06:35.399Z,101718.47
2018-10-21T07:09:06.930Z,101714.56
2018-10-21T07:11:35.776Z,101655.91
2018-10-21T07:14:04.299Z,101717.22
2018-10-21T07:16:33.122Z,101715.41
2018-10-21T07:19:01.478Z,101716.27
2018-10-21T07:21:29.958Z,101721.52
2018-10-21T07:23:58.642Z,101718.80
2018-10-21T07:26:27.199Z,101720.12
2018-10-21T07:28:55.867Z,101671.53
2018-10-21T07:31:24.448Z,101724.09
2018-10-21T07:33:53.110Z,101720.92
2018-10-21T07:36:21.775Z,101717.72
2018-10-21T07:38:50.242Z,101728.32
2018-10-21T07:41:18.854Z,101727.41
2018-10-21T07:43:47.352Z,101719.85
2018-10-21T07:46:16.190Z,101727.34
2018-10-21T07:48:44.792Z,101728.86
2018-10-21T07:51:13.351Z,101729.66
2018-10-21T07:53:42.154Z,101725.75
2018-10-21T07:56:10.958Z,101725.62
2018-10-21T07:58:39.426Z,101725.13
2018-10-21T08:01:08.082Z,101731.23
2018-10-21T08:03:36.859Z,101733.75
2018-10-21T08:06:30.058Z,101727.64
2018-10-21T08:11:28.902Z,101731.10
2018-10-21T08:13:57.584Z,101738.11
2018-10-21T08:16:26.161Z,101733.75
2018-10-21T08:18:54.719Z,101732.17
2018-10-21T08:21:23.342Z,101736.27
2018-10-21T08:23:51.782Z,101728.45
2018-10-21T08:26:20.572Z,101733.75
2018-10-21T08:28:49.099Z,101725.80
2018-10-21T08:31:18.697Z,101725.80
2018-10-21T08:33:47.332Z,101729.39
2018-10-21T08:36:15.885Z,101719.17
2018-10-21T08:38:44.487Z,101714.67
2018-10-21T08:41:13.028Z,101715.86
2018-10-21T08:43:42.119Z,101667.12
2018-10-21T08:46:10.829Z,101714.78
2018-10-21T08:48:39.586Z,101706.83
2018-10-21T08:51:08.480Z,101700.59
2018-10-21T08:53:37.242Z,101689.08
2018-10-21T08:56:06.051Z,101696.89
2018-10-21T08:58:34.670Z,101687.85
2018-10-21T09:01:03.182Z,101678.19
2018-10-21T09:03:31.726Z,101688.63
2018-10-21T09:06:00.418Z,101680.28
2018-10-21T09:08:29.009Z,101690.22
2018-10-21T09:10:57.633Z,101633.51
2018-10-21T09:13:26.180Z,101693.12
2018-10-21T09:15:54.859Z,101688.61
2018-10-21T09:18:23.410Z,101681.42
2018-10-21T09:20:51.945Z,101681.05
2018-10-21T09:23:21.166Z,101673.09
2018-10-21T09:25:49.682Z,101664.47
2018-10-21T09:28:18.998Z,101663.56
2018-10-21T09:30:47.562Z,101665.66
2018-10-21T09:33:16.210Z,101652.95
2018-10-21T09:35:44.790Z,101658.36
2018-10-21T09:38:13.358Z,101655.95
2018-10-21T09:40:41.918Z,101658.59
2018-10-21T09:43:10.516Z,101659.02
2018-10-21T09:45:39.190Z,101654.89
2018-10-21T09:48:07.746Z,101666.03
2018-10-21T09:50:36.449Z,101667.50
2018-10-21T09:53:04.998Z,101659.78
2018-10-21T09:55:33.620Z,101655.27
2018-10-21T09:58:02.266Z,101652.09
2018-10-21T10:00:35.952Z,101647.55
2018-10-21T10:03:06.014Z,101643.98
2018-10-21T10:05:34.686Z,101531.02
2018-10-21T10:08:03.257Z,101632.28
2018-10-21T10:10:32.106Z,101627.78
2018-10-21T10:13:00.662Z,101633.84
2018-10-21T10:15:29.278Z,101628.16
2018-10-21T10:17:57.810Z,101629.86
2018-10-21T10:20:26.403Z,101631.75
2018-10-21T10:22:55.269Z,101544.60
2018-10-21T10:25:23.762Z,101631.34
2018-10-21T10:27:52.453Z,101610.97
2018-10-21T10:30:21.162Z,101627.92
2018-10-21T10:32:49.826Z,101624.33
2018-10-21T10:35:18.302Z,101618.64
2018-10-21T10:37:46.913Z,101614.66
2018-10-21T10:40:15.526Z,101611.86
2018-10-21T10:42:44.040Z,101607.46
2018-10-21T10:45:12.707Z,101593.31
2018-10-21T10:47:41.262Z,101606.06
2018-10-21T10:50:11.402Z,101598.18
2018-10-21T10:52:40.350Z,101597.00
2018-10-21T10:55:09.451Z,101534.06
2018-10-21T10:57:37.914Z,101590.52
2018-10-21T11:00:08.695Z,101590.52
2018-10-21T11:02:37.153Z,101583.42
2018-10-21T11:05:07.107Z,101587.33
2018-10-21T11:07:35.626Z,101579.22
2018-10-21T11:10:04.288Z,101571.80
2018-10-21T11:12:32.910Z,101561.34
2018-10-21T11:15:01.481Z,101566.75
2018-10-21T11:17:30.434Z,101563.95
2018-10-21T11:19:58.903Z,101567.66
2018-10-21T11:22:27.697Z,101559.94
2018-10-21T11:24:57.535Z,101563.23
2018-10-21T11:27:26.352Z,101564.25
2018-10-21T11:29:55.014Z,101562.36
2018-10-21T11:32:23.638Z,101562.77
2018-10-21T11:34:52.156Z,101558.87
2018-10-21T11:37:20.977Z,101560.13
2018-10-21T11:39:49.787Z,101540.04
2018-10-21T11:42:18.420Z,101545.61
2018-10-21T11:44:47.358Z,101535.45
2018-10-21T11:47:15.970Z,101539.50
2018-10-21T11:49:44.535Z,101538.63
2018-10-21T11:52:13.157Z,101541.63
2018-10-21T11:54:41.659Z,101541.14
2018-10-21T11:57:10.826Z,101539.35
2018-10-21T11:59:39.368Z,101535.83
2018-10-21T12:02:08.350Z,101533.59
2018-10-21T12:04:36.926Z,101525.63
2018-10-21T12:07:05.621Z,101530.38
2018-10-21T12:09:34.308Z,101519.76
2018-10-21T12:12:03.015Z,101518.20
2018-10-21T12:14:31.633Z,101512.90
2018-10-21T12:17:00.141Z,101512.37
2018-10-21T12:19:29.311Z,101475.28
2018-10-21T12:21:57.907Z,101522.72
2018-10-21T12:24:27.206Z,101508.54
2018-10-21T12:26:55.885Z,101507.06
2018-10-21T12:29:24.560Z,101496.03
2018-10-21T12:31:53.194Z,101494.10
2018-10-21T12:34:21.794Z,101487.16
2018-10-21T12:36:50.318Z,101483.56
2018-10-21T12:39:18.834Z,101476.78
2018-10-21T12:41:47.728Z,101471.88
2018-10-21T12:44:16.231Z,101467.91
2018-10-21T12:46:45.042Z,101462.52
2018-10-21T12:49:13.556Z,101459.41
2018-10-21T12:51:42.050Z,101460.20
2018-10-21T12:54:10.784Z,101453.00
2018-10-21T12:56:39.214Z,101453.41
2018-10-21T12:59:08.891Z,101450.19
2018-10-21T13:01:37.506Z,101450.89
2018-10-21T13:04:06.720Z,101452.68
2018-10-21T13:06:35.353Z,101442.22
2018-10-21T13:09:05.550Z,101444.34
2018-10-21T13:11:34.059Z,101444.64
2018-10-21T13:14:03.051Z,101441.11
2018-10-21T13:16:31.633Z,101435.65
2018-10-21T13:19:00.260Z,101431.21
2018-10-21T13:21:28.772Z,101422.38
2018-10-21T13:23:57.454Z,101429.42
2018-10-21T13:26:25.980Z,101425.98
2018-10-21T13:28:54.528Z,101418.73
2018-10-21T13:31:24.135Z,101415.59
2018-10-21T13:33:52.613Z,101422.63
2018-10-21T13:36:21.554Z,101405.75
2018-10-21T13:38:50.190Z,101417.24
2018-10-21T13:41:18.957Z,101419.41
2018-10-21T13:43:47.581Z,101424.71
2018-10-21T13:46:16.234Z,101410.52
2018-10-21T13:48:44.782Z,101405.22
2018-10-21T13:51:13.433Z,101400.66
2018-10-21T13:53:43.040Z,101388.88
2018-10-21T13:56:11.929Z,101392.86
2018-10-21T13:58:40.530Z,101388.34
2018-10-21T14:01:09.049Z,101382.08
2018-10-21T14:03:37.671Z,101382.87
2018-10-21T14:06:06.186Z,101379.27
2018-10-21T14:08:34.868Z,101374.74
2018-10-21T14:11:03.429Z,101369.89
2018-10-21T14:13:31.922Z,101374.74
2018-10-21T14:16:02.435Z,101368.32
2018-10-21T14:18:33.619Z,101361.30
2018-10-21T14:21:02.621Z,101354.67
2018-10-21T14:23:31.730Z,101359.03
2018-10-21T14:26:00.965Z,101346.91
2018-10-21T14:28:29.538Z,101344.27
2018-10-21T14:30:58.311Z,101330.45
2018-10-21T14:33:26.766Z,101322.77
2018-10-21T14:35:55.513Z,101319.66
2018-10-21T14:38:24.207Z,101324.51
2018-10-21T14:40:52.797Z,101313.23
2018-10-21T14:43:21.455Z,101308.33
2018-10-21T14:45:50.155Z,101310.98
2018-10-21T14:48:19.638Z,101305.75
2018-10-21T14:50:48.132Z,101305.50
2018-10-21T14:53:18.554Z,101309.86
2018-10-21T14:55:47.657Z,101311.56
2018-10-21T14:58:16.506Z,101303.51
2018-10-21T15:00:45.180Z,101283.67
2018-10-21T15:03:13.871Z,101288.61
2018-10-21T15:05:42.512Z,101289.94
2018-10-21T15:08:11.246Z,101281.98
2018-10-21T15:10:39.757Z,101273.55
2018-10-21T15:13:08.232Z,101272.85
2018-10-21T15:15:37.058Z,101259.20
2018-10-21T15:18:05.942Z,101262.23
2018-10-21T15:20:35.343Z,101257.88
2018-10-21T15:23:04.099Z,101263.02
2018-10-21T15:25:33.290Z,101250.57
2018-10-21T15:28:01.955Z,101245.76
2018-10-21T15:30:30.782Z,101240.45
2018-10-21T15:32:59.506Z,101201.69
2018-10-21T15:35:28.405Z,101244.34
2018-10-21T15:37:57.049Z,101243.48
2018-10-21T15:40:26.407Z,101248.41
2018-10-21T15:42:55.297Z,101229.42
2018-10-21T15:45:24.658Z,101244.72
2018-10-21T15:47:53.520Z,101243.48
2018-10-21T15:50:22.197Z,101247.00
2018-10-21T15:52:51.236Z,101238.05
2018-10-21T15:55:19.726Z,101242.92
2018-10-21T15:57:48.424Z,101235.51
2018-10-21T16:00:17.088Z,101231.90
2018-10-21T16:02:45.606Z,101236.84
2018-10-21T16:05:15.253Z,101240.16
2018-10-21T16:07:43.865Z,101233.42
2018-10-21T16:10:12.828Z,101235.80
2018-10-21T16:12:41.342Z,101226.87
2018-10-21T16:15:12.710Z,101174.14
2018-10-21T16:17:41.488Z,101207.73
2018-10-21T16:20:10.772Z,101230.59
2018-10-21T16:22:40.836Z,101230.59
2018-10-21T16:25:12.051Z,101231.92
2018-10-21T16:27:41.182Z,101225.28
2018-10-21T16:30:13.010Z,101229.87
2018-10-21T16:32:42.870Z,101229.50
2018-10-21T16:35:11.885Z,101218.79
2018-10-21T16:37:41.524Z,101213.39
2018-10-21T16:40:12.744Z,101215.55
2018-10-21T16:42:41.911Z,101210.15
2018-10-21T16:45:11.382Z,101202.59
2018-10-21T16:47:40.525Z,101124.59
2018-10-21T16:50:12.349Z,101211.12
2018-10-21T16:52:42.570Z,101207.14
2018-10-21T16:55:11.926Z,101211.53
2018-10-21T16:57:40.495Z,101213.59
2018-10-21T17:00:11.963Z,101230.31
2018-10-21T17:02:40.742Z,101200.14
2018-10-21T17:05:09.665Z,101197.66
2018-10-21T17:07:38.494Z,101183.59
2018-10-21T17:10:08.291Z,101202.80
2018-10-21T17:12:36.877Z,101194.08
2018-10-21T17:15:06.227Z,101184.38
2018-10-21T17:17:34.872Z,101137.45
2018-10-21T17:20:03.593Z,101170.17
2018-10-21T17:22:32.302Z,101171.50
2018-10-21T17:25:00.853Z,101182.50
2018-10-21T17:27:29.590Z,101183.05
2018-10-21T17:29:58.287Z,101183.45
2018-10-21T17:32:26.898Z,101187.81
2018-10-21T17:34:55.366Z,101193.13
2018-10-21T17:37:23.854Z,101189.61
2018-10-21T17:39:52.720Z,101188.00
2018-10-21T17:42:21.485Z,101177.28
2018-10-21T17:44:50.178Z,101182.59
2018-10-21T17:47:18.718Z,101179.07
2018-10-21T17:49:47.341Z,101178.15
2018-10-21T17:52:15.970Z,101163.53
2018-10-21T17:54:44.511Z,101170.17
2018-10-21T17:57:13.294Z,101155.52
2018-10-21T17:59:41.878Z,101164.00
2018-10-21T18:02:10.701Z,101164.37
2018-10-21T18:04:39.369Z,101171.88
2018-10-21T18:07:08.233Z,101167.34
2018-10-21T18:09:36.840Z,101163.91
2018-10-21T18:12:05.777Z,101167.02
2018-10-21T18:14:34.302Z,101165.61
2018-10-21T18:17:03.466Z,101146.09
2018-10-21T18:19:33.018Z,101162.02
2018-10-21T18:22:01.554Z,101154.05
2018-10-21T18:24:30.959Z,101154.89
2018-10-21T18:26:59.577Z,101155.39
2018-10-21T18:29:28.647Z,101153.09
2018-10-21T18:31:57.263Z,101146.92
2018-10-21T18:34:26.343Z,101141.92
2018-10-21T18:36:54.961Z,101137.16
2018-10-21T18:39:23.642Z,101136.02
2018-10-21T18:41:52.266Z,101139.08
2018-10-21T18:44:21.116Z,101139.45
2018-10-21T18:46:50.912Z,101125.76
2018-10-21T18:49:19.438Z,101138.90
2018-10-21T18:51:48.072Z,101102.44
2018-10-21T18:54:17.964Z,101110.05
2018-10-21T18:56:46.986Z,101115.17
2018-10-21T18:59:15.510Z,101112.42
2018-10-21T19:01:44.602Z,101108.34
2018-10-21T19:04:13.952Z,101111.95
2018-10-21T19:06:42.577Z,101094.69
2018-10-21T19:09:12.662Z,101097.34
2018-10-21T19:11:41.484Z,101098.18
2018-10-21T19:14:10.586Z,101094.19
2018-10-21T19:16:39.330Z,101091.44
2018-10-21T19:19:08.231Z,101097.16
2018-10-21T19:21:36.766Z,101091.44
2018-10-21T19:24:05.490Z,101093.17
2018-10-21T19:26:34.261Z,101101.14
2018-10-21T19:29:03.620Z,101094.97
2018-10-21T19:31:32.157Z,101096.39
2018-10-21T19:34:01.024Z,101099.05
2018-10-21T19:36:29.542Z,101098.48
2018-10-21T19:38:58.278Z,101087.55
2018-10-21T19:41:26.958Z,101052.80
2018-10-21T19:43:55.622Z,101101.02
2018-10-21T19:46:24.274Z,101099.60
2018-10-21T19:48:54.110Z,101097.99
2018-10-21T19:51:22.871Z,101090.30
2018-10-21T19:53:51.375Z,101089.16
2018-10-21T19:56:20.390Z,101089.90
2018-10-21T19:58:48.970Z,101094.93
2018-10-21T20:01:18.230Z,101085.91
2018-10-21T20:03:46.782Z,101091.97
2018-10-21T20:08:36.534Z,101083.44
2018-10-21T20:11:05.584Z,101024.38
2018-10-21T20:13:34.066Z,101075.47
2018-10-21T20:16:02.826Z,101089.86
2018-10-21T20:18:31.283Z,101087.29
2018-10-21T20:21:00.114Z,101079.05
2018-10-21T20:23:28.641Z,101083.20
2018-10-21T20:25:57.345Z,101085.03
2018-10-21T20:28:25.834Z,101079.81
2018-10-21T20:30:54.467Z,101086.45
2018-10-21T20:33:23.163Z,101087.38
2018-10-21T20:35:51.750Z,101089.56
2018-10-21T20:38:20.570Z,101080.63
2018-10-21T20:40:49.103Z,101093.64
2018-10-21T20:43:17.718Z,101109.56
2018-10-21T20:45:46.218Z,101105.59
2018-10-21T20:48:14.863Z,101112.69
2018-10-21T20:50:43.424Z,101111.77
2018-10-21T20:53:11.903Z,101136.48
2018-10-21T20:55:40.622Z,101120.56
2018-10-21T20:58:09.288Z,101103.89
2018-10-21T21:00:37.997Z,101095.61
2018-10-21T21:03:06.597Z,101098.07
2018-10-21T21:05:35.076Z,101093.22
2018-10-21T21:08:03.774Z,101083.93
2018-10-21T21:10:32.318Z,101053.69
2018-10-21T21:13:01.237Z,101102.78
2018-10-21T21:15:29.825Z,101092.25
2018-10-21T21:17:58.519Z,101111.79
2018-10-21T21:20:27.070Z,101100.39
2018-10-21T21:22:55.874Z,101115.58
2018-10-21T21:25:24.470Z,101115.17
2018-10-21T21:27:53.138Z,101122.94
2018-10-21T21:30:21.934Z,100973.21
2018-10-21T21:32:50.487Z,101119.50
2018-10-21T21:35:19.278Z,101133.17
2018-10-21T21:37:47.781Z,101132.20
2018-10-21T21:40:16.569Z,101134.85
2018-10-21T21:42:45.010Z,101143.88
2018-10-21T21:45:13.610Z,101140.51
2018-10-21T21:47:42.366Z,101152.91
2018-10-21T21:50:10.874Z,101145.13
2018-10-21T21:52:40.568Z,101165.72
2018-10-21T21:55:09.102Z,101161.91
2018-10-21T21:57:37.794Z,101159.34
2018-10-21T22:00:09.274Z,101165.69
2018-10-21T22:02:38.086Z,101172.08
2018-10-21T22:05:07.942Z,101172.97
2018-10-21T22:07:37.435Z,101181.64
2018-10-21T22:10:07.146Z,101163.23
2018-10-21T22:12:35.743Z,101164.19
2018-10-21T22:15:04.365Z,101172.98
2018-10-21T22:17:33.117Z,101161.22
2018-10-21T22:20:01.735Z,101172.31
2018-10-21T22:22:30.379Z,101163.58
2018-10-21T22:24:59.005Z,101161.47
2018-10-21T22:27:27.558Z,101166.39
2018-10-21T22:29:56.443Z,101166.02
2018-10-21T22:32:25.082Z,101179.61
2018-10-21T22:34:53.814Z,101172.37
2018-10-21T22:37:22.454Z,101162.09
2018-10-21T22:39:51.094Z,101158.98
2018-10-21T22:42:19.658Z,101164.91
2018-10-21T22:44:48.130Z,101159.77
2018-10-21T22:47:16.926Z,101158.23
2018-10-21T22:49:45.393Z,101160.51
2018-10-21T22:52:14.388Z,101162.91
2018-10-21T22:54:42.983Z,101162.16
2018-10-21T22:57:19.769Z,101164.02
2018-10-21T22:59:50.336Z,101159.27
2018-10-21T23:02:18.865Z,101160.38
2018-10-21T23:04:47.983Z,101168.56
2018-10-21T23:07:16.562Z,101168.11
2018-10-21T23:09:45.169Z,101173.57
2018-10-21T23:12:14.126Z,101163.30
2018-10-21T23:32:01.858Z,101167.92
2018-10-21T23:34:30.589Z,101179.28
2018-10-21T23:36:59.082Z,101175.61
2018-10-21T23:39:28.597Z,101181.09
2018-10-21T23:41:57.523Z,101181.90
2018-10-21T23:44:26.163Z,101181.83
2018-10-21T23:46:54.797Z,101185.87
2018-10-21T23:49:23.364Z,101187.50
2018-10-21T23:51:52.151Z,101101.25
2018-10-21T23:54:20.802Z,101195.73
2018-10-21T23:56:49.459Z,101195.36
2018-10-21T23:59:18.059Z,101193.62
